Time;durP1;ratioP1;P1;durP2;ratioP2;P2;SDS_P1;SDS_P2;PMS_P1;PMS_P2;Temp;Humidity;BMP_temperature;BMP_pressure;BME280_temperature;BME280_humidity;BME280_pressure;Samples;Min_cycle;Max_cycle;Signal;HPM_P1;HPM_P2
2021/04/11 00:01:33;;;;;;;1.90;1.00;;;11.20;74.70;;;;;;5116463;28;20043;-52
2021/04/11 00:03:59;;;;;;;2.38;1.27;;;11.20;74.70;;;;;;5116325;28;20055;-56
2021/04/11 00:06:24;;;;;;;1.55;1.42;;;11.20;74.70;;;;;;5116255;28;20056;-52
2021/04/11 00:08:50;;;;;;;1.75;1.42;;;11.20;74.70;;;;;;5116494;28;20083;-56
2021/04/11 00:11:16;;;;;;;2.38;1.50;;;11.20;74.60;;;;;;5116271;28;20067;-52
2021/04/11 00:13:42;;;;;;;2.08;1.63;;;11.20;74.70;;;;;;5115677;28;20047;-53
2021/04/11 00:16:08;;;;;;;3.17;1.65;;;11.20;74.70;;;;;;5116216;28;20044;-54
2021/04/11 00:18:34;;;;;;;2.15;1.35;;;11.20;74.80;;;;;;5114942;28;20130;-56
2021/04/11 00:21:03;;;;;;;1.80;1.50;;;11.20;74.90;;;;;;5115655;28;20093;-56
2021/04/11 00:23:30;;;;;;;2.65;1.48;;;11.20;74.90;;;;;;5115919;28;20046;-56
2021/04/11 00:25:56;;;;;;;1.52;1.38;;;11.20;74.90;;;;;;5115914;28;20043;-44
2021/04/11 00:28:22;;;;;;;1.80;1.35;;;11.20;75.00;;;;;;5115497;28;20058;-54
2021/04/11 00:30:48;;;;;;;2.05;1.45;;;11.20;75.10;;;;;;5115800;28;20051;-53
2021/04/11 00:33:28;;;;;;;4.45;1.40;;;11.20;75.10;;;;;;5115988;28;20051;-56
2021/04/11 00:36:16;;;;;;;1.42;1.23;;;11.20;75.00;;;;;;5115618;28;20044;-53
2021/04/11 00:38:43;;;;;;;1.42;1.30;;;11.20;75.00;;;;;;5115687;28;20212;-56
2021/04/11 00:41:22;;;;;;;2.65;1.70;;;11.20;74.80;;;;;;5115710;28;20048;-54
2021/04/11 00:43:49;;;;;;;2.78;1.45;;;11.20;74.80;;;;;;5115176;28;20048;-54
2021/04/11 00:46:30;;;;;;;2.17;1.52;;;11.20;74.70;;;;;;5114150;28;20043;-50
2021/04/11 00:48:56;;;;;;;2.13;1.30;;;11.20;74.70;;;;;;5115224;28;20057;-56
2021/04/11 00:51:28;;;;;;;2.08;1.20;;;11.20;74.60;;;;;;5115452;28;20047;-55
2021/04/11 00:54:04;;;;;;;2.90;1.30;;;11.20;74.60;;;;;;5115393;28;20044;-51
2021/04/11 00:56:32;;;;;;;2.25;1.33;;;11.20;75.20;;;;;;5115231;28;20067;-56
2021/04/11 00:58:59;;;;;;;1.65;1.50;;;11.20;74.60;;;;;;5115014;28;20065;-51
2021/04/11 01:01:25;;;;;;;0.95;0.95;;;11.10;74.50;;;;;;5115039;28;20100;-48
2021/04/11 01:03:52;;;;;;;1.25;1.13;;;11.20;74.50;;;;;;5115300;28;20044;-55
2021/04/11 01:06:25;;;;;;;2.30;1.10;;;11.20;74.60;;;;;;5115149;28;20040;-56
2021/04/11 01:08:52;;;;;;;1.85;1.30;;;11.20;74.50;;;;;;5115002;28;20484;-54
2021/04/11 01:11:26;;;;;;;1.67;1.48;;;11.20;74.50;;;;;;5114933;28;20061;-53
2021/04/11 01:13:56;;;;;;;2.22;1.60;;;11.10;74.40;;;;;;5115247;28;20044;-46
2021/04/11 01:16:23;;;;;;;1.80;1.33;;;11.20;74.50;;;;;;5114509;28;20395;-52
2021/04/11 01:18:50;;;;;;;1.20;1.10;;;11.10;74.50;;;;;;5114971;28;20050;-56
2021/04/11 01:21:40;;;;;;;2.10;1.40;;;11.20;74.50;;;;;;5114923;28;20404;-55
2021/04/11 01:24:44;;;;;;;1.67;1.17;;;11.10;74.60;;;;;;5114640;28;20047;-53
2021/04/11 01:27:12;;;;;;;1.70;1.10;;;11.20;74.60;;;;;;5114746;28;20470;-57
2021/04/11 01:29:40;;;;;;;1.52;1.35;;;11.10;75.20;;;;;;5114282;28;20096;-55
2021/04/11 01:32:07;;;;;;;1.42;1.30;;;11.20;74.70;;;;;;5114028;28;20383;-53
2021/04/11 01:34:35;;;;;;;2.67;1.52;;;11.10;74.60;;;;;;5114418;28;20078;-47
2021/04/11 01:37:02;;;;;;;1.05;0.95;;;11.10;74.70;;;;;;5114610;28;20556;-49
2021/04/11 01:39:35;;;;;;;1.48;1.20;;;11.10;74.70;;;;;;5114694;28;20059;-47
2021/04/11 01:42:01;;;;;;;2.22;1.10;;;11.10;74.70;;;;;;5114614;28;20054;-47
2021/04/11 01:44:32;;;;;;;2.25;1.40;;;11.10;74.70;;;;;;5114368;28;20048;-49
2021/04/11 01:46:58;;;;;;;3.42;1.85;;;11.10;74.70;;;;;;5113722;28;20441;-48
2021/04/11 01:49:26;;;;;;;1.88;1.30;;;11.10;75.40;;;;;;5114261;28;20506;-53
2021/04/11 01:52:15;;;;;;;1.20;1.10;;;11.10;74.70;;;;;;5114282;28;20043;-57
2021/04/11 01:54:41;;;;;;;1.35;1.25;;;11.10;74.70;;;;;;5114144;28;20043;-55
2021/04/11 01:57:24;;;;;;;1.52;1.10;;;11.10;74.80;;;;;;5113935;28;20093;-57
2021/04/11 01:59:57;;;;;;;1.48;1.10;;;11.10;74.80;;;;;;5113906;28;20096;-51
2021/04/11 02:02:23;;;;;;;1.38;1.20;;;11.10;74.80;;;;;;5113671;27;20127;-52
2021/04/11 02:04:50;;;;;;;1.25;1.00;;;11.10;74.70;;;;;;5113994;28;20559;-52
2021/04/11 02:07:16;;;;;;;1.60;1.33;;;11.10;74.80;;;;;;5113944;28;20097;-51
2021/04/11 02:09:46;;;;;;;1.67;0.98;;;11.10;74.80;;;;;;5113956;28;20389;-52
2021/04/11 02:12:13;;;;;;;1.88;1.30;;;11.10;74.70;;;;;;5113908;28;20050;-47
2021/04/11 02:14:43;;;;;;;1.40;0.98;;;11.10;74.80;;;;;;5114018;28;20096;-48
2021/04/11 02:17:13;;;;;;;2.58;1.27;;;11.10;74.80;;;;;;5113486;28;20055;-55
2021/04/11 02:19:39;;;;;;;1.75;1.10;;;11.10;74.90;;;;;;5112105;28;20056;-56
2021/04/11 02:22:27;;;;;;;1.73;1.08;;;11.10;74.90;;;;;;5113741;28;20092;-54
2021/04/11 02:24:53;;;;;;;1.58;1.15;;;11.10;74.80;;;;;;5113357;28;20065;-56
2021/04/11 02:27:21;;;;;;;1.05;1.05;;;11.10;74.80;;;;;;5113664;28;20047;-56
2021/04/11 02:29:48;;;;;;;1.20;1.00;;;11.10;75.00;;;;;;5113751;28;20039;-56
2021/04/11 02:32:15;;;;;;;1.42;1.00;;;11.10;75.00;;;;;;5113714;28;20142;-43
2021/04/11 02:34:43;;;;;;;1.33;1.05;;;11.10;75.10;;;;;;5113142;28;20043;-49
2021/04/11 02:37:23;;;;;;;0.82;0.77;;;11.10;75.10;;;;;;5113555;28;20040;-56
2021/04/11 02:39:53;;;;;;;0.75;0.75;;;11.10;75.00;;;;;;5113410;28;20047;-57
2021/04/11 02:42:23;;;;;;;2.03;1.05;;;11.10;74.90;;;;;;5112610;28;20119;-56
2021/04/11 02:44:51;;;;;;;1.23;0.90;;;11.10;74.90;;;;;;5111776;28;20052;-50
2021/04/11 02:47:17;;;;;;;1.27;0.90;;;11.10;74.90;;;;;;5113274;28;20496;-49
2021/04/11 02:49:44;;;;;;;0.63;0.60;;;11.10;74.90;;;;;;5113261;28;20075;-42
2021/04/11 02:52:30;;;;;;;1.15;1.00;;;11.10;74.90;;;;;;5113228;28;20047;-49
2021/04/11 02:54:57;;;;;;;1.20;0.73;;;11.10;75.00;;;;;;5113037;28;20040;-54
2021/04/11 02:57:23;;;;;;;1.65;0.90;;;11.10;74.90;;;;;;5113099;28;20101;-45
2021/04/11 02:59:54;;;;;;;0.80;0.80;;;11.10;74.90;;;;;;5113337;28;20043;-52
2021/04/11 03:02:21;;;;;;;2.25;0.93;;;11.10;75.00;;;;;;5113204;28;20071;-53
2021/04/11 03:04:51;;;;;;;1.50;1.00;;;11.10;74.90;;;;;;5112718;28;20071;-56
2021/04/11 03:07:22;;;;;;;1.17;0.95;;;11.10;74.90;;;;;;5111785;28;20508;-51
2021/04/11 03:09:54;;;;;;;1.05;0.80;;;11.10;74.80;;;;;;5113092;28;20097;-56
2021/04/11 03:12:20;;;;;;;1.00;0.90;;;11.10;74.80;;;;;;5113054;28;20040;-56
2021/04/11 03:14:47;;;;;;;0.98;0.70;;;11.10;74.80;;;;;;5113119;28;20050;-52
2021/04/11 03:17:20;;;;;;;1.70;0.80;;;11.10;74.80;;;;;;5112941;28;20044;-45
2021/04/11 03:20:03;;;;;;;1.45;0.98;;;11.10;74.70;;;;;;5112936;28;20055;-46
2021/04/11 03:22:29;;;;;;;0.90;0.80;;;11.10;74.60;;;;;;5112876;28;20048;-55
2021/04/11 03:24:55;;;;;;;1.77;1.00;;;11.10;74.60;;;;;;5112996;28;20123;-54
2021/04/11 03:27:36;;;;;;;1.10;1.00;;;11.10;74.60;;;;;;5113195;28;20109;-50
2021/04/11 03:30:10;;;;;;;1.75;1.08;;;11.10;74.70;;;;;;5112843;28;20102;-53
2021/04/11 03:32:42;;;;;;;0.85;0.73;;;11.00;74.70;;;;;;5112933;28;20048;-56
2021/04/11 03:35:11;;;;;;;0.95;0.77;;;11.10;74.80;;;;;;5112742;28;20441;-50
2021/04/11 03:37:39;;;;;;;1.42;0.90;;;11.00;74.70;;;;;;5112695;28;20040;-55
2021/04/11 03:40:09;;;;;;;0.88;0.85;;;11.00;74.70;;;;;;5112775;28;20044;-54
2021/04/11 03:42:37;;;;;;;0.75;0.68;;;11.00;74.60;;;;;;5112744;28;20050;-52
2021/04/11 03:45:03;;;;;;;1.40;0.70;;;11.00;74.70;;;;;;5113096;28;20043;-47
2021/04/11 03:47:38;;;;;;;0.82;0.80;;;11.00;74.70;;;;;;5112788;28;20441;-54
2021/04/11 03:50:18;;;;;;;0.77;0.70;;;11.00;74.70;;;;;;5112676;28;20048;-57
2021/04/11 03:53:06;;;;;;;1.25;0.70;;;11.00;74.70;;;;;;5113697;28;20407;-52
2021/04/11 03:55:38;;;;;;;1.25;0.80;;;11.00;74.70;;;;;;5116782;28;20075;-53
2021/04/11 03:58:12;;;;;;;1.98;0.95;;;11.00;74.80;;;;;;5116325;28;20068;-56
2021/04/11 04:00:47;;;;;;;0.65;0.60;;;11.00;74.80;;;;;;5116764;27;20127;-56
2021/04/11 04:03:18;;;;;;;0.80;0.80;;;11.00;74.80;;;;;;5116474;28;20051;-52
2021/04/11 04:05:46;;;;;;;0.95;0.70;;;11.00;74.90;;;;;;5116072;28;20395;-52
2021/04/11 04:08:12;;;;;;;1.25;0.70;;;11.00;74.80;;;;;;5116109;28;20043;-50
2021/04/11 04:10:41;;;;;;;1.65;0.70;;;11.00;74.90;;;;;;5116295;28;20048;-57
2021/04/11 04:13:44;;;;;;;0.90;0.90;;;11.00;74.80;;;;;;5116282;28;20092;-49
2021/04/11 04:16:31;;;;;;;1.20;0.70;;;11.00;74.80;;;;;;5116060;28;20071;-54
2021/04/11 04:19:11;;;;;;;0.68;0.55;;;11.00;74.80;;;;;;5116005;28;20488;-56
2021/04/11 04:22:14;;;;;;;1.10;0.75;;;11.00;74.80;;;;;;5115733;28;20063;-56
2021/04/11 04:24:49;;;;;;;0.70;0.70;;;11.00;74.80;;;;;;5115705;28;20124;-48
2021/04/11 04:27:38;;;;;;;1.33;0.88;;;11.00;74.80;;;;;;5115908;28;20044;-56
2021/04/11 04:30:20;;;;;;;0.57;0.57;;;11.00;74.80;;;;;;5115962;28;20525;-49
2021/04/11 04:33:23;;;;;;;1.33;0.70;;;11.00;74.80;;;;;;5115592;28;20140;-55
2021/04/11 04:35:54;;;;;;;0.60;0.60;;;11.00;74.80;;;;;;5115933;28;20126;-50
2021/04/11 04:38:28;;;;;;;1.63;0.70;;;11.00;74.80;;;;;;5115492;28;20047;-55
2021/04/11 04:41:30;;;;;;;1.65;0.90;;;11.00;74.80;;;;;;5115655;28;20047;-51
2021/04/11 04:44:04;;;;;;;0.55;0.50;;;11.00;74.80;;;;;;5072439;28;20088;-44
2021/04/11 04:47:07;;;;;;;0.90;0.70;;;11.00;74.80;;;;;;5072655;28;20040;-50
2021/04/11 04:49:37;;;;;;;1.33;0.90;;;11.00;74.80;;;;;;5072400;28;20051;-50
2021/04/11 04:52:09;;;;;;;0.65;0.65;;;11.00;74.80;;;;;;5071961;28;20213;-44
2021/04/11 04:54:55;;;;;;;1.55;0.70;;;10.90;74.70;;;;;;5071265;28;20057;-46
2021/04/11 04:57:27;;;;;;;;;;;11.00;74.90;;;;;;5071773;28;20516;-54
2021/04/11 05:00:22;;;;;;;0.65;0.63;;;11.00;74.70;;;;;;5072206;28;19924;-41
2021/04/11 05:02:58;;;;;;;0.77;0.60;;;11.00;74.80;;;;;;4973579;28;20051;-51
2021/04/11 05:05:26;;;;;;;0.85;0.63;;;11.00;74.90;;;;;;4973040;28;20082;-45
2021/04/11 05:08:05;;;;;;;0.63;0.52;;;11.00;74.90;;;;;;4973203;28;20055;-48
2021/04/11 05:10:39;;;;;;;0.55;0.50;;;10.90;74.90;;;;;;4973275;28;20051;-38
2021/04/11 05:13:17;;;;;;;0.55;0.55;;;11.00;74.90;;;;;;4973499;28;20049;-44
2021/04/11 05:15:46;;;;;;;0.73;0.73;;;11.00;74.90;;;;;;4973471;28;20133;-47
2021/04/11 05:18:18;;;;;;;0.70;0.70;;;11.00;74.90;;;;;;4973509;28;20055;-53
2021/04/11 05:20:49;;;;;;;0.88;0.50;;;11.00;74.90;;;;;;4986473;28;20062;-45
2021/04/11 05:23:39;;;;;;;0.68;0.63;;;11.00;74.80;;;;;;4992814;28;20054;-53
2021/04/11 05:26:12;;;;;;;0.60;0.50;;;11.00;74.80;;;;;;4992555;28;20055;-47
2021/04/11 05:29:03;;;;;;;0.82;0.52;;;10.90;74.70;;;;;;4992712;28;20057;-51
2021/04/11 05:31:36;;;;;;;1.42;0.90;;;11.00;74.80;;;;;;4992704;28;20388;-48
2021/04/11 05:34:05;;;;;;;2.25;1.00;;;11.00;74.80;;;;;;4992649;28;20133;-42
2021/04/11 05:36:36;;;;;;;0.70;0.70;;;11.00;74.80;;;;;;4992597;28;20054;-51
2021/04/11 05:39:25;;;;;;;0.40;0.40;;;11.00;74.70;;;;;;5009159;28;20531;-50
2021/04/11 05:42:11;;;;;;;0.57;0.50;;;11.00;74.70;;;;;;5053748;28;20063;-43
2021/04/11 05:44:47;;;;;;;0.63;0.63;;;11.00;74.70;;;;;;5053631;28;20079;-47
2021/04/11 05:47:21;;;;;;;0.60;0.50;;;11.00;74.70;;;;;;5054063;28;20132;-38
2021/04/11 05:50:08;;;;;;;1.65;0.70;;;11.00;74.70;;;;;;5053814;28;20045;-38
2021/04/11 05:52:41;;;;;;;0.65;0.60;;;11.00;74.70;;;;;;5053518;28;20489;-37
2021/04/11 05:55:10;;;;;;;1.13;0.80;;;11.00;74.70;;;;;;5052991;28;20045;-38
2021/04/11 05:57:46;;;;;;;0.50;0.50;;;10.90;74.70;;;;;;5061932;28;20138;-37
2021/04/11 06:00:21;;;;;;;0.63;0.63;;;11.00;74.70;;;;;;5094008;28;20048;-37
2021/04/11 06:02:51;;;;;;;0.93;0.70;;;11.00;74.70;;;;;;5103323;28;20565;-36
2021/04/11 06:05:24;;;;;;;1.25;0.50;;;10.90;74.70;;;;;;5114044;28;20132;-38
2021/04/11 06:08:11;;;;;;;2.03;0.90;;;10.90;74.70;;;;;;5114197;28;20051;-38
2021/04/11 06:10:48;;;;;;;1.30;0.65;;;10.90;74.70;;;;;;5113485;28;20495;-40
2021/04/11 06:13:18;;;;;;;0.85;0.50;;;11.00;74.80;;;;;;5113004;28;20055;-41
2021/04/11 06:15:56;;;;;;;0.50;0.50;;;10.90;74.80;;;;;;5112969;28;20121;-40
2021/04/11 06:18:22;;;;;;;0.98;0.70;;;11.00;74.80;;;;;;5113508;28;20396;-44
2021/04/11 06:20:50;;;;;;;1.10;0.60;;;10.90;74.80;;;;;;5113833;28;20067;-40
2021/04/11 06:23:29;;;;;;;0.60;0.60;;;10.90;74.80;;;;;;5113371;28;20058;-45
2021/04/11 06:25:55;;;;;;;1.08;0.50;;;11.00;74.80;;;;;;5113033;28;20051;-39
2021/04/11 06:28:36;;;;;;;0.70;0.70;;;10.90;74.70;;;;;;5103344;28;20056;-40
2021/04/11 06:31:05;;;;;;;0.85;0.85;;;10.90;74.70;;;;;;5109728;28;20036;-44
2021/04/11 06:33:36;;;;;;;0.45;0.45;;;10.90;74.60;;;;;;5111549;28;20471;-45
2021/04/11 06:36:08;;;;;;;1.30;0.60;;;10.90;74.60;;;;;;5112998;28;20053;-43
2021/04/11 06:38:42;;;;;;;1.10;0.60;;;10.90;74.60;;;;;;5112417;28;20043;-43
2021/04/11 06:41:07;;;;;;;0.93;0.38;;;10.90;74.70;;;;;;5112212;28;20044;-50
2021/04/11 06:44:13;;;;;;;1.00;0.90;;;10.90;74.80;;;;;;5112295;28;20112;-39
2021/04/11 06:46:47;;;;;;;1.95;0.57;;;11.00;74.70;;;;;;5112368;28;20408;-39
2021/04/11 06:49:24;;;;;;;0.70;0.57;;;10.90;74.70;;;;;;5112332;28;20052;-47
2021/04/11 06:52:19;;;;;;;0.40;0.40;;;10.90;74.70;;;;;;5112078;28;20050;-43
2021/04/11 06:55:24;;;;;;;1.15;0.60;;;10.90;74.60;;;;;;5092367;28;20047;-39
2021/04/11 06:58:13;;;;;;;0.80;0.60;;;10.90;74.60;;;;;;5100557;28;20056;-40
2021/04/11 07:00:52;;;;;;;0.88;0.60;;;10.90;74.60;;;;;;5093815;28;20423;-39
2021/04/11 07:04:06;;;;;;;0.65;0.60;;;10.90;74.70;;;;;;5098901;28;20077;-39
2021/04/11 07:06:52;;;;;;;1.00;0.77;;;10.90;74.60;;;;;;5112020;28;20047;-38
2021/04/11 07:09:36;;;;;;;0.40;0.40;;;10.90;74.60;;;;;;5110693;28;20044;-39
2021/04/11 07:12:34;;;;;;;0.57;0.55;;;10.90;74.60;;;;;;5112510;28;20100;-38
2021/04/11 07:15:33;;;;;;;0.50;0.50;;;10.90;74.60;;;;;;5112079;28;20440;-43
2021/04/11 07:18:26;;;;;;;1.77;0.90;;;10.90;74.70;;;;;;5110619;28;20047;-46
2021/04/11 07:21:22;;;;;;;1.48;0.60;;;10.90;74.60;;;;;;5112597;28;20140;-48
2021/04/11 07:24:21;;;;;;;0.75;0.75;;;10.90;74.70;;;;;;5110545;28;20055;-38
2021/04/11 07:27:10;;;;;;;1.13;0.60;;;10.90;74.60;;;;;;5112167;28;20476;-39
2021/04/11 07:29:54;;;;;;;1.00;0.47;;;10.90;74.60;;;;;;5115730;28;20154;-43
2021/04/11 07:32:32;;;;;;;0.65;0.60;;;10.90;74.60;;;;;;5116177;28;20169;-50
2021/04/11 07:35:03;;;;;;;0.50;0.50;;;10.90;74.60;;;;;;5116993;28;20048;-39
2021/04/11 07:38:00;;;;;;;0.57;0.43;;;10.90;74.60;;;;;;5116929;28;20043;-38
2021/04/11 07:41:03;;;;;;;1.08;0.65;;;10.90;74.60;;;;;;5116912;28;20604;-49
2021/04/11 07:44:05;;;;;;;2.00;0.65;;;10.90;74.60;;;;;;5116557;28;20047;-39
2021/04/11 07:47:07;;;;;;;0.63;0.50;;;10.90;74.50;;;;;;5116586;27;20060;-51
2021/04/11 07:50:10;;;;;;;4.90;0.88;;;10.90;74.50;;;;;;5107586;28;20039;-39
2021/04/11 07:53:03;;;;;;;1.58;0.70;;;10.90;74.50;;;;;;5116617;28;20039;-39
2021/04/11 07:55:34;;;;;;;1.65;0.63;;;10.90;74.50;;;;;;5116543;28;20071;-50
2021/04/11 07:58:28;;;;;;;1.17;0.75;;;10.90;74.50;;;;;;5116003;28;20403;-50
2021/04/11 08:01:22;;;;;;;0.80;0.80;;;10.90;74.60;;;;;;5115358;28;20048;-39
2021/04/11 08:04:18;;;;;;;0.57;0.55;;;10.90;75.20;;;;;;5116387;28;20051;-41
2021/04/11 08:07:02;;;;;;;1.80;0.70;;;10.90;74.50;;;;;;5116053;28;20051;-50
2021/04/11 08:09:49;;;;;;;0.98;0.60;;;10.90;74.50;;;;;;5115744;28;20043;-39
2021/04/11 08:12:22;;;;;;;0.80;0.57;;;10.90;74.50;;;;;;5115986;28;20389;-39
2021/04/11 08:15:06;;;;;;;1.17;0.60;;;10.90;74.60;;;;;;5115220;28;20050;-45
2021/04/11 08:17:46;;;;;;;0.65;0.60;;;10.90;74.60;;;;;;5095597;28;20075;-39
2021/04/11 08:20:14;;;;;;;1.10;0.63;;;10.90;74.60;;;;;;5112625;28;20069;-49
2021/04/11 08:23:06;;;;;;;0.63;0.50;;;10.90;74.60;;;;;;5115899;28;20061;-42
2021/04/11 08:25:39;;;;;;;0.63;0.60;;;10.90;74.60;;;;;;5115781;28;20039;-39
2021/04/11 08:28:42;;;;;;;0.80;0.60;;;10.90;74.70;;;;;;5115258;27;20502;-41
2021/04/11 08:31:17;;;;;;;0.55;0.50;;;10.90;74.70;;;;;;5115256;28;20050;-48
2021/04/11 08:34:13;;;;;;;1.27;0.73;;;10.90;74.70;;;;;;5115486;28;20123;-47
2021/04/11 08:37:16;;;;;;;0.70;0.70;;;10.90;74.70;;;;;;5115426;28;20450;-44
2021/04/11 08:40:09;;;;;;;1.45;0.80;;;10.90;74.70;;;;;;5114403;28;20507;-44
2021/04/11 08:43:03;;;;;;;0.43;0.40;;;10.90;74.70;;;;;;5115265;28;20044;-42
2021/04/11 08:45:47;;;;;;;1.00;0.60;;;10.90;74.70;;;;;;5114572;28;20054;-42
2021/04/11 08:48:35;;;;;;;1.53;0.70;;;10.90;74.70;;;;;;5115531;28;20066;-43
2021/04/11 08:51:28;;;;;;;1.30;0.50;;;10.90;74.80;;;;;;5115081;28;20136;-42
2021/04/11 08:54:08;;;;;;;1.13;0.60;;;10.90;74.80;;;;;;5114884;28;20044;-39
2021/04/11 08:56:52;;;;;;;1.90;0.80;;;10.90;74.80;;;;;;5097741;28;20201;-42
2021/04/11 08:59:49;;;;;;;2.10;0.77;;;10.90;74.90;;;;;;5115046;28;20079;-41
2021/04/11 09:02:35;;;;;;;0.70;0.60;;;10.90;74.90;;;;;;5114521;27;20036;-43
2021/04/11 09:05:35;;;;;;;0.70;0.50;;;10.90;74.90;;;;;;5114790;28;20067;-42
2021/04/11 09:08:19;;;;;;;0.50;0.50;;;10.90;75.00;;;;;;5114838;28;20501;-42
2021/04/11 09:11:04;;;;;;;0.65;0.65;;;10.90;75.00;;;;;;5115119;28;20197;-42
2021/04/11 09:14:00;;;;;;;1.20;0.70;;;10.90;75.00;;;;;;5114591;28;20046;-38
2021/04/11 09:16:46;;;;;;;0.82;0.75;;;10.90;74.90;;;;;;5113905;28;20800;-42
2021/04/11 09:19:36;;;;;;;1.45;1.23;;;10.90;75.00;;;;;;5114284;28;20062;-41
2021/04/11 09:22:44;;;;;;;1.77;0.70;;;10.90;74.90;;;;;;5114758;28;20047;-42
2021/04/11 09:25:16;;;;;;;0.75;0.75;;;10.90;75.10;;;;;;5099513;28;20119;-42
2021/04/11 09:27:59;;;;;;;0.98;0.73;;;10.90;75.10;;;;;;5113987;28;20044;-43
2021/04/11 09:30:25;;;;;;;1.02;0.65;;;10.90;75.10;;;;;;5114103;28;20504;-39
2021/04/11 09:32:56;;;;;;;2.10;0.88;;;10.90;75.10;;;;;;5110098;28;20110;-41
2021/04/11 09:35:59;;;;;;;0.47;0.47;;;10.90;75.10;;;;;;5110572;28;20120;-38
2021/04/11 09:38:41;;;;;;;1.77;0.68;;;10.90;75.10;;;;;;5113741;28;20051;-38
2021/04/11 09:41:25;;;;;;;0.68;0.68;;;10.90;75.20;;;;;;5113499;28;20118;-40
2021/04/11 09:44:10;;;;;;;0.85;0.70;;;10.90;75.30;;;;;;5108369;28;20509;-37
2021/04/11 09:46:44;;;;;;;2.00;0.90;;;10.90;75.20;;;;;;5110742;28;20055;-39
2021/04/11 09:49:16;;;;;;;0.93;0.85;;;10.90;75.20;;;;;;5110702;28;20065;-36
2021/04/11 09:52:19;;;;;;;0.70;0.70;;;11.00;75.40;;;;;;5112126;28;20488;-40
2021/04/11 09:54:47;;;;;;;1.95;0.60;;;10.90;75.40;;;;;;5112023;28;20044;-35
2021/04/11 09:57:18;;;;;;;0.55;0.50;;;10.90;75.40;;;;;;5112232;28;20499;-39
2021/04/11 09:59:52;;;;;;;0.70;0.70;;;10.90;75.50;;;;;;5112574;28;20430;-36
2021/04/11 10:02:47;;;;;;;1.23;0.50;;;11.00;75.50;;;;;;5107122;28;20048;-35
2021/04/11 10:05:33;;;;;;;1.50;0.80;;;11.00;75.50;;;;;;5093131;28;20055;-35
2021/04/11 10:07:59;;;;;;;0.60;0.55;;;11.00;75.50;;;;;;5112411;28;20047;-36
2021/04/11 10:11:00;;;;;;;1.25;0.57;;;11.00;75.50;;;;;;5112457;28;20153;-37
2021/04/11 10:13:44;;;;;;;2.33;0.68;;;11.00;75.50;;;;;;5110944;28;20066;-36
2021/04/11 10:16:16;;;;;;;0.98;0.88;;;11.00;75.50;;;;;;5092754;28;20093;-39
2021/04/11 10:19:25;;;;;;;0.60;0.60;;;11.00;75.60;;;;;;5110167;28;20050;-40
2021/04/11 10:22:14;;;;;;;0.60;0.60;;;11.00;75.60;;;;;;5112929;28;20047;-39
2021/04/11 10:25:16;;;;;;;0.68;0.68;;;11.00;75.70;;;;;;5112607;28;20898;-40
2021/04/11 10:28:00;;;;;;;1.52;0.60;;;11.00;75.60;;;;;;5113108;28;20046;-39
2021/04/11 10:30:27;;;;;;;0.60;0.60;;;11.00;75.70;;;;;;5113355;28;20068;-41
2021/04/11 10:33:16;;;;;;;0.65;0.65;;;11.00;75.80;;;;;;5113171;28;20052;-41
2021/04/11 10:35:51;;;;;;;0.65;0.65;;;11.00;75.80;;;;;;5107213;28;20039;-42
2021/04/11 10:38:40;;;;;;;1.27;0.75;;;11.00;75.70;;;;;;5108898;28;20123;-37
2021/04/11 10:41:48;;;;;;;0.85;0.70;;;11.00;75.80;;;;;;5112189;28;20074;-42
2021/04/11 10:44:33;;;;;;;0.60;0.50;;;11.00;75.70;;;;;;5027144;28;20080;-41
2021/04/11 10:47:17;;;;;;;1.75;1.02;;;11.00;75.70;;;;;;5028920;28;20054;-40
2021/04/11 10:50:01;;;;;;;0.57;0.50;;;11.00;75.70;;;;;;5029141;28;20128;-41
2021/04/11 10:52:54;;;;;;;0.77;0.60;;;11.00;75.80;;;;;;5029715;28;20151;-46
2021/04/11 10:55:29;;;;;;;0.40;0.40;;;11.00;75.90;;;;;;5029700;28;20057;-40
2021/04/11 10:58:04;;;;;;;1.30;0.77;;;11.00;75.90;;;;;;5029634;28;20115;-41
2021/04/11 11:00:39;;;;;;;0.50;0.50;;;11.00;75.90;;;;;;5029505;28;20052;-37
2021/04/11 11:03:39;;;;;;;1.13;0.70;;;11.00;75.90;;;;;;5029319;28;20049;-40
2021/04/11 11:06:29;;;;;;;0.63;0.60;;;11.00;75.70;;;;;;5029535;28;20053;-39
2021/04/11 11:09:20;;;;;;;0.75;0.60;;;11.00;75.80;;;;;;5010827;28;20490;-41
2021/04/11 11:12:05;;;;;;;1.05;0.90;;;11.00;75.90;;;;;;5024253;28;20528;-42
2021/04/11 11:15:01;;;;;;;1.10;0.70;;;11.00;75.90;;;;;;5028074;28;20093;-43
2021/04/11 11:18:04;;;;;;;0.63;0.60;;;11.00;75.80;;;;;;5028305;28;20140;-39
2021/04/11 11:21:07;;;;;;;0.70;0.60;;;11.00;75.70;;;;;;5069104;28;20060;-39
2021/04/11 11:23:47;;;;;;;1.42;0.60;;;11.00;75.80;;;;;;5111448;28;20043;-41
2021/04/11 11:26:30;;;;;;;0.98;0.68;;;11.00;75.80;;;;;;5104595;28;20086;-40
2021/04/11 11:29:21;;;;;;;0.80;0.63;;;11.00;75.70;;;;;;5086733;28;20052;-39
2021/04/11 11:31:53;;;;;;;1.23;0.68;;;11.00;75.80;;;;;;5097935;28;20061;-42
2021/04/11 11:34:38;;;;;;;0.73;0.50;;;11.00;75.80;;;;;;5107518;28;20048;-42
2021/04/11 11:37:09;;;;;;;0.70;0.52;;;11.00;75.80;;;;;;5106663;28;20214;-40
2021/04/11 11:39:45;;;;;;;0.77;0.77;;;11.00;75.90;;;;;;5107137;28;20036;-41
2021/04/11 11:42:16;;;;;;;;;;;11.00;75.90;;;;;;5107649;28;20412;-44
2021/04/11 11:45:15;;;;;;;0.73;0.60;;;11.00;75.50;;;;;;5106869;28;19920;-41
2021/04/11 11:48:00;;;;;;;1.15;0.60;;;11.00;75.80;;;;;;5095608;28;20055;-43
2021/04/11 11:50:32;;;;;;;0.83;0.50;;;11.00;75.70;;;;;;5107264;28;20052;-43
2021/04/11 11:53:36;;;;;;;0.85;0.55;;;11.00;75.80;;;;;;5106575;28;20384;-40
2021/04/11 11:56:18;;;;;;;1.42;0.60;;;11.00;75.80;;;;;;5091728;28;20052;-45
2021/04/11 11:59:12;;;;;;;1.65;0.60;;;11.00;75.70;;;;;;5098283;28;20047;-41
2021/04/11 12:02:13;;;;;;;1.55;0.52;;;11.00;75.70;;;;;;5106530;28;20074;-41
2021/04/11 12:04:58;;;;;;;0.60;0.60;;;11.00;75.70;;;;;;5063644;28;20079;-41
2021/04/11 12:07:41;;;;;;;0.73;0.57;;;11.00;75.60;;;;;;5063482;28;20053;-40
2021/04/11 12:10:24;;;;;;;0.60;0.60;;;11.00;75.70;;;;;;5047290;28;20534;-41
2021/04/11 12:13:22;;;;;;;0.77;0.47;;;11.00;75.70;;;;;;5063216;28;20127;-42
2021/04/11 12:16:12;;;;;;;1.50;0.70;;;11.00;75.60;;;;;;5067164;28;20071;-39
2021/04/11 12:19:01;;;;;;;0.43;0.35;;;11.00;75.70;;;;;;5062683;28;20084;-38
2021/04/11 12:21:39;;;;;;;0.75;0.47;;;11.00;75.70;;;;;;5066217;28;20420;-41
2021/04/11 12:24:19;;;;;;;0.50;0.50;;;11.00;76.30;;;;;;5067439;28;20045;-40
2021/04/11 12:26:50;;;;;;;0.63;0.40;;;11.00;75.60;;;;;;5067353;28;20044;-44
2021/04/11 12:29:20;;;;;;;0.85;0.55;;;11.00;75.70;;;;;;5067574;28;20095;-40
2021/04/11 12:32:11;;;;;;;0.40;0.40;;;11.00;75.60;;;;;;5046830;28;20084;-41
2021/04/11 12:35:14;;;;;;;0.50;0.50;;;11.10;75.60;;;;;;5047102;28;20107;-39
2021/04/11 12:37:51;;;;;;;0.40;0.40;;;11.00;75.50;;;;;;5046960;28;20111;-45
2021/04/11 12:40:25;;;;;;;0.30;0.30;;;11.00;75.50;;;;;;5068224;28;20044;-40
2021/04/11 12:43:02;;;;;;;0.50;0.50;;;11.00;75.50;;;;;;5089652;28;20071;-43
2021/04/11 12:45:33;;;;;;;0.70;0.40;;;11.10;75.60;;;;;;5090517;28;20097;-45
2021/04/11 12:48:44;;;;;;;2.53;0.70;;;11.10;75.60;;;;;;5089910;28;20665;-40
2021/04/11 12:51:20;;;;;;;0.80;0.70;;;11.10;75.50;;;;;;5109490;28;20050;-41
2021/04/11 12:53:58;;;;;;;0.45;0.40;;;11.10;75.60;;;;;;5110169;28;20071;-41
2021/04/11 12:56:26;;;;;;;0.43;0.30;;;11.10;75.50;;;;;;5110098;28;20098;-42
2021/04/11 12:58:58;;;;;;;0.82;0.50;;;11.10;75.50;;;;;;5109895;28;20051;-44
2021/04/11 13:01:29;;;;;;;0.50;0.50;;;11.10;75.60;;;;;;5110449;28;20060;-40
2021/04/11 13:04:11;;;;;;;0.88;0.60;;;11.10;75.50;;;;;;5109816;28;20491;-42
2021/04/11 13:07:04;;;;;;;0.50;0.50;;;11.10;75.50;;;;;;5109406;28;20075;-41
2021/04/11 13:09:51;;;;;;;0.88;0.45;;;11.10;75.40;;;;;;5109896;28;20051;-40
2021/04/11 13:12:41;;;;;;;0.55;0.40;;;11.10;75.50;;;;;;5110519;28;20867;-44
2021/04/11 13:15:19;;;;;;;0.52;0.50;;;11.10;75.50;;;;;;5110156;28;20082;-42
2021/04/11 13:17:52;;;;;;;0.80;0.45;;;11.10;75.50;;;;;;5110044;28;20138;-40
2021/04/11 13:20:22;;;;;;;0.68;0.50;;;11.10;75.50;;;;;;5109673;28;20550;-43
2021/04/11 13:23:10;;;;;;;0.60;0.60;;;11.10;75.50;;;;;;5109697;27;20047;-42
2021/04/11 13:26:01;;;;;;;0.50;0.50;;;11.10;75.40;;;;;;5109307;28;20132;-42
2021/04/11 13:28:33;;;;;;;0.40;0.40;;;11.10;75.40;;;;;;5109750;28;20079;-41
2021/04/11 13:31:09;;;;;;;0.90;0.50;;;11.20;75.50;;;;;;5108760;28;20510;-40
2021/04/11 13:33:40;;;;;;;1.55;0.60;;;11.10;75.40;;;;;;5109694;28;20552;-41
2021/04/11 13:36:10;;;;;;;1.02;0.40;;;11.10;75.40;;;;;;5109946;28;20819;-43
2021/04/11 13:38:38;;;;;;;0.60;0.60;;;11.10;75.40;;;;;;5109611;28;20565;-41
2021/04/11 13:41:32;;;;;;;0.47;0.47;;;11.10;75.40;;;;;;5107673;28;20117;-42
2021/04/11 13:44:16;;;;;;;0.63;0.47;;;11.10;75.40;;;;;;5109043;28;20104;-45
2021/04/11 13:47:05;;;;;;;0.40;0.40;;;11.10;75.30;;;;;;5109190;28;20051;-44
2021/04/11 13:49:35;;;;;;;0.47;0.47;;;11.10;75.30;;;;;;5109301;28;20056;-42
2021/04/11 13:52:24;;;;;;;0.65;0.50;;;11.10;75.40;;;;;;5109102;28;20047;-38